Historyczne dane pomiarowe

Dodano dane terminowe – wersja testowa.

Dane z okresu 1951-2019

Wersja bazy: 1.34 [2019-03-16, lista zmian], aktualizacja planowana na 2019-04-15

Dane meteo z obszaru Polski uzyskane na podstawie danych udostępnionych przez Instytut Meteorologii i Gospodarki Wodnej – Państwowy Instytut Badawczy.

 

Wybierz Datę:    

       

TemperaturaWilgotnośćZachmurzenieWiatrCiśnienieWidzialnośćZjawiska
 Data    tng td wb rh cc ccl cl cm ch dir g1 g2 mslp ppp      
2002-09-18 00:00:00 11.4--- 10.6 10.995wx-1wx--1006.7 993.5 0.0-----
2002-09-18 01:00:00 11.2--- 10.4 10.795wx-3wx--1006.2 993.0------
2002-09-18 02:00:00 10.7--- 9.6 10.193wx-2wx--1005.5 992.3------
2002-09-18 03:00:00 11.3--- 10.1 10.692wxwxwx3wx--1004.6 991.4----wx
2002-09-18 04:00:00 11.7--- 10.4 11.092wxwxwx4wx--1003.8 990.7----wx
2002-09-18 05:00:00 12.2--- 11.0 11.592wxwxwx5wx--1003.4 990.3----wx
2002-09-18 06:00:00 12.3--- 11.1 11.692wxwxwx5wx--1003.2 990.1 0.0---wx
2002-09-18 07:00:00 13.2--- 11.8 12.491wxwxwx7wx--1003.2 990.1----wx
2002-09-18 08:00:00 13.5--- 12.0 12.691wxwxwx6wx--1003.5 990.4----wx
2002-09-18 09:00:00 13.7--- 13.0 13.396wxwxwx5wx--1003.1 990.1----wxw1
2002-09-18 10:00:00 13.9--- 13.0 13.494wxwxwx5wx--1003.3 990.3----wx
2002-09-18 11:00:00 15.1--- 13.0 13.987wxwxwx4wx--1003.7 990.7----wx
2002-09-18 12:00:00 13.4--- 11.1 12.186wxwxwx4wx--1004.6 991.5 0.4---wxw1
2002-09-18 13:00:00 14.9--- 11.8 13.182wxwxwx3wx--1004.8 991.8----wx
2002-09-18 14:00:00 16.2--- 9.5 12.565wxwxwx5wx--1005.2 992.2----wx
2002-09-18 15:00:00 16.2--- 10.7 13.070wxwxwx4wx--1005.7 992.7----wxw1
2002-09-18 16:00:00 14.7--- 10.1 12.174wxwxwx4wx--1006.8 993.8----wx
2002-09-18 17:00:00 13.0--- 9.4 11.079wxwxwx2wx--1007.7 994.6----wx
2002-09-18 18:00:00 12.0--- 9.2 10.583wxwxwx2wx--1008.4 995.2 0.5---wxw1
2002-09-18 19:00:00 10.8--- 8.4 9.585wxwxwx2wx--1008.8 995.6----wx
2002-09-18 20:00:00 10.1--- 8.4 9.289wxwxwx2wx--1009.3 996.0----wx
2002-09-18 21:00:00 10.9--- 9.1 9.989wxwxwx3wx--1009.4 996.2----wx
2002-09-18 22:00:00 11.1--- 9.0 10.087wx-4wx--1009.7 996.5------
2002-09-18 23:00:00 10.0--- 8.0 9.087wx-3wx--1010.0 996.7------

 

Źródłem pochodzenia danych jest Instytut Meteorologii i Gospodarki Wodnej – Państwowy Instytut Badawczy. Dane Instytutu Meteorologii i Gospodarki Wodnej – Państwowego Instytutu Badawczego zostały przetworzone.

Dane źródłowe można odnaleźć na stronie https://dane.imgw.pl